createdAt,value
2023-05-03T00:00:27.609Z,61.85
2023-05-03T00:02:57.419Z,62.77
2023-05-03T00:05:28.007Z,63.02
2023-05-03T00:07:56.922Z,62.70
2023-05-03T00:10:25.405Z,62.83
2023-05-03T00:12:53.488Z,61.47
2023-05-03T00:15:21.567Z,61.13
2023-05-03T00:17:51.517Z,61.30
2023-05-03T00:20:20.676Z,61.73
2023-05-03T00:22:48.912Z,62.50
2023-05-03T00:25:17.201Z,63.49
2023-05-03T00:27:45.439Z,63.90
2023-05-03T00:30:14.740Z,64.03
2023-05-03T00:32:42.837Z,64.09
2023-05-03T00:35:12.373Z,65.32
2023-05-03T00:37:40.533Z,65.21
2023-05-03T00:40:10.603Z,66.09
2023-05-03T00:42:38.696Z,66.09
2023-05-03T00:45:08.358Z,66.12
2023-05-03T00:47:38.328Z,66.07
2023-05-03T00:50:11.696Z,66.50
2023-05-03T00:52:41.924Z,66.40
2023-05-03T00:55:12.210Z,66.77
2023-05-03T00:57:40.838Z,66.30
2023-05-03T01:00:13.468Z,66.50
2023-05-03T01:02:41.890Z,66.69
2023-05-03T01:05:10.937Z,66.98
2023-05-03T01:07:57.466Z,67.18
2023-05-03T01:10:39.331Z,66.70
2023-05-03T01:13:20.467Z,67.69
2023-05-03T01:16:00.841Z,68.26
2023-05-03T01:18:34.583Z,67.18
2023-05-03T01:21:06.457Z,67.23
2023-05-03T01:23:44.765Z,68.26
2023-05-03T01:26:25.881Z,69.06
2023-05-03T01:28:54.565Z,69.43
2023-05-03T01:31:33.805Z,68.22
2023-05-03T01:34:21.057Z,68.94
2023-05-03T01:36:53.663Z,69.06
2023-05-03T01:39:27.804Z,68.47
2023-05-03T01:41:59.642Z,69.13
2023-05-03T01:44:30.249Z,69.58
2023-05-03T01:46:59.069Z,69.50
2023-05-03T01:49:27.218Z,69.79
2023-05-03T01:51:55.327Z,70.34
2023-05-03T01:54:23.436Z,70.86
2023-05-03T01:56:51.564Z,70.87
2023-05-03T01:59:21.029Z,70.95
2023-05-03T02:01:49.139Z,70.73
2023-05-03T02:04:17.306Z,70.59
2023-05-03T02:06:45.539Z,70.97
2023-05-03T02:09:14.638Z,70.80
2023-05-03T02:11:43.886Z,69.38
2023-05-03T02:14:12.436Z,69.13
2023-05-03T02:16:41.956Z,69.38
2023-05-03T02:19:11.044Z,69.02
2023-05-03T02:21:39.455Z,69.13
2023-05-03T02:24:08.122Z,69.73
2023-05-03T02:26:36.215Z,69.52
2023-05-03T02:29:04.353Z,69.62
2023-05-03T02:31:32.566Z,69.06
2023-05-03T02:34:03.313Z,68.80
2023-05-03T02:36:31.997Z,69.54
2023-05-03T02:39:00.117Z,70.12
2023-05-03T02:41:28.659Z,69.73
2023-05-03T02:43:56.781Z,69.73
2023-05-03T02:46:24.986Z,68.92
2023-05-03T02:48:53.111Z,67.92
2023-05-03T02:51:22.580Z,67.82
2023-05-03T02:53:50.756Z,68.25
2023-05-03T02:56:18.836Z,67.82
2023-05-03T02:58:47.123Z,67.47
2023-05-03T03:01:15.228Z,67.53
2023-05-03T03:03:43.554Z,68.13
2023-05-03T03:06:11.979Z,67.89
2023-05-03T03:08:41.487Z,67.96
2023-05-03T03:11:09.758Z,67.89
2023-05-03T03:13:39.742Z,67.14
2023-05-03T03:16:08.409Z,68.10
2023-05-03T03:18:37.010Z,68.55
2023-05-03T03:21:05.661Z,68.37
2023-05-03T03:23:33.787Z,68.71
2023-05-03T03:26:03.427Z,68.90
2023-05-03T03:28:31.550Z,68.52
2023-05-03T03:30:59.876Z,68.19
2023-05-03T03:33:27.999Z,67.87
2023-05-03T03:35:56.092Z,68.23
2023-05-03T03:38:24.159Z,68.79
2023-05-03T03:40:52.704Z,68.75
2023-05-03T03:43:22.240Z,68.64
2023-05-03T03:45:50.590Z,69.02
2023-05-03T03:48:18.745Z,69.31
2023-05-03T03:50:47.192Z,69.40
2023-05-03T03:53:15.376Z,68.83
2023-05-03T03:55:43.599Z,67.75
2023-05-03T03:58:11.734Z,67.19
2023-05-03T04:00:41.534Z,66.92
2023-05-03T04:03:09.731Z,67.30
2023-05-03T04:05:37.893Z,67.28
2023-05-03T04:08:06.612Z,67.23
2023-05-03T04:10:34.737Z,66.02
2023-05-03T04:13:03.114Z,66.51
2023-05-03T04:15:31.228Z,64.96
2023-05-03T04:18:00.751Z,65.45
2023-05-03T04:20:29.367Z,64.43
2023-05-03T04:22:57.500Z,64.31
2023-05-03T04:25:26.611Z,64.84
2023-05-03T04:27:55.601Z,64.90
2023-05-03T04:30:24.728Z,64.99
2023-05-03T04:32:54.258Z,64.74
2023-05-03T04:35:23.939Z,64.29
2023-05-03T04:37:52.016Z,64.38
2023-05-03T04:40:20.318Z,64.59
2023-05-03T04:42:48.425Z,63.99
2023-05-03T04:45:16.570Z,64.27
2023-05-03T04:47:44.993Z,63.87
2023-05-03T04:50:13.165Z,63.94
2023-05-03T04:52:42.648Z,63.54
2023-05-03T04:55:11.304Z,63.09
2023-05-03T04:57:39.406Z,59.15
2023-05-03T05:00:11.863Z,56.60
2023-05-03T05:02:40.355Z,54.68
2023-05-03T05:05:10.589Z,52.42
2023-05-03T05:07:38.699Z,51.01
2023-05-03T05:10:10.791Z,50.79
2023-05-03T05:12:39.171Z,52.11
2023-05-03T05:15:09.032Z,53.17
2023-05-03T05:17:37.381Z,53.92
2023-05-03T05:20:07.400Z,54.55
2023-05-03T05:22:35.796Z,55.50
2023-05-03T05:25:04.123Z,55.58
2023-05-03T05:27:33.715Z,56.42
2023-05-03T05:30:02.230Z,55.62
2023-05-03T05:32:30.811Z,56.21
2023-05-03T05:34:58.871Z,56.25
2023-05-03T05:37:27.423Z,56.06
2023-05-03T05:39:56.244Z,56.33
2023-05-03T05:42:24.254Z,56.93
2023-05-03T05:44:53.668Z,57.29
2023-05-03T05:47:22.027Z,55.35
2023-05-03T05:49:50.155Z,55.05
2023-05-03T05:52:18.222Z,55.80
2023-05-03T05:54:46.234Z,54.93
2023-05-03T05:57:14.416Z,55.12
2023-05-03T05:59:42.525Z,55.85
2023-05-03T06:02:17.686Z,55.58
2023-05-03T06:04:47.298Z,55.62
2023-05-03T06:07:16.241Z,55.90
2023-05-03T06:09:44.364Z,56.23
2023-05-03T06:12:12.425Z,56.63
2023-05-03T06:14:46.300Z,55.77
2023-05-03T06:17:22.698Z,55.92
2023-05-03T06:19:50.892Z,55.01
2023-05-03T06:22:19.075Z,54.41
2023-05-03T06:24:47.247Z,54.55
2023-05-03T06:27:15.321Z,55.33
2023-05-03T06:29:44.332Z,55.40
2023-05-03T06:32:12.452Z,55.33
2023-05-03T06:34:41.827Z,55.04
2023-05-03T06:37:09.952Z,53.93
2023-05-03T06:39:38.034Z,54.33
2023-05-03T06:42:06.321Z,54.04
2023-05-03T06:44:34.563Z,52.03
2023-05-03T06:47:02.783Z,52.35
2023-05-03T06:49:30.947Z,52.78
2023-05-03T06:52:00.400Z,53.63
2023-05-03T06:54:28.516Z,54.01
2023-05-03T06:56:56.648Z,54.22
2023-05-03T06:59:24.737Z,53.29
2023-05-03T07:01:52.863Z,52.75
2023-05-03T07:04:21.269Z,52.73
2023-05-03T07:09:41.379Z,52.81
2023-05-03T07:12:10.791Z,53.72
2023-05-03T07:14:40.592Z,53.46
2023-05-03T07:17:08.699Z,52.86
2023-05-03T07:19:37.314Z,52.42
2023-05-03T07:22:05.675Z,52.76
2023-05-03T07:24:35.173Z,52.11
2023-05-03T07:27:03.282Z,52.22
2023-05-03T07:29:31.328Z,52.28
2023-05-03T07:31:59.743Z,51.47
2023-05-03T07:34:28.017Z,51.59
2023-05-03T07:36:56.276Z,51.98
2023-05-03T07:39:24.280Z,51.90
2023-05-03T07:41:53.708Z,50.43
2023-05-03T07:44:22.331Z,48.87
2023-05-03T07:46:50.342Z,49.38
2023-05-03T07:49:18.422Z,50.59
2023-05-03T07:51:46.490Z,50.12
2023-05-03T07:54:14.536Z,50.28
2023-05-03T07:56:42.562Z,50.90
2023-05-03T07:59:11.968Z,49.78
2023-05-03T08:01:40.374Z,49.52
2023-05-03T08:04:08.613Z,50.21
2023-05-03T08:06:38.493Z,50.33
2023-05-03T08:09:06.759Z,50.14
2023-05-03T08:11:34.868Z,50.17
2023-05-03T08:14:03.007Z,49.24
2023-05-03T08:16:32.460Z,49.58
2023-05-03T08:19:00.698Z,48.42
2023-05-03T08:21:28.751Z,48.03
2023-05-03T08:23:56.789Z,48.38
2023-05-03T08:26:28.442Z,48.90
2023-05-03T08:28:56.603Z,48.41
2023-05-03T08:31:24.809Z,47.43
2023-05-03T08:33:54.250Z,46.91
2023-05-03T08:36:22.275Z,46.52
2023-05-03T08:38:50.726Z,47.38
2023-05-03T08:41:29.120Z,47.07
2023-05-03T08:44:01.181Z,46.60
2023-05-03T08:46:30.559Z,47.12
2023-05-03T08:49:01.684Z,47.67
2023-05-03T08:51:29.788Z,47.48
2023-05-03T08:53:57.997Z,47.09
2023-05-03T08:56:31.088Z,46.98
2023-05-03T08:59:07.201Z,47.10
2023-05-03T09:01:37.712Z,46.74
2023-05-03T09:04:08.049Z,45.80
2023-05-03T09:06:37.311Z,46.38
2023-05-03T09:09:08.651Z,46.47
2023-05-03T09:11:39.692Z,45.97
2023-05-03T09:14:13.175Z,45.86
2023-05-03T09:16:44.432Z,45.20
2023-05-03T09:19:15.850Z,45.74
2023-05-03T09:21:47.440Z,45.32
2023-05-03T09:24:18.488Z,45.88
2023-05-03T09:26:48.019Z,47.11
2023-05-03T09:29:30.116Z,45.60
2023-05-03T09:32:04.674Z,45.89
2023-05-03T09:34:35.539Z,45.77
2023-05-03T09:37:03.598Z,45.57
2023-05-03T09:39:32.279Z,45.54
2023-05-03T09:42:01.155Z,46.36
2023-05-03T09:44:43.583Z,45.31
2023-05-03T09:47:12.906Z,45.83
2023-05-03T09:49:42.475Z,45.94
2023-05-03T09:52:11.053Z,46.26
2023-05-03T09:54:40.755Z,45.97
2023-05-03T09:57:10.101Z,45.50
2023-05-03T09:59:39.835Z,45.82
2023-05-03T10:02:09.180Z,46.20
2023-05-03T10:04:44.576Z,46.61
2023-05-03T10:07:18.244Z,45.50
2023-05-03T10:09:48.770Z,45.61
2023-05-03T10:12:17.720Z,45.75
2023-05-03T10:14:49.372Z,44.99
2023-05-03T10:17:39.441Z,45.75
2023-05-03T10:20:29.294Z,45.99
2023-05-03T10:23:14.769Z,45.71
2023-05-03T10:26:17.155Z,45.59
2023-05-03T10:28:46.330Z,45.76
2023-05-03T10:31:45.862Z,45.94
2023-05-03T10:34:25.274Z,45.59
2023-05-03T10:36:54.306Z,45.36
2023-05-03T10:39:23.004Z,45.05
2023-05-03T10:42:05.082Z,44.89
2023-05-03T10:44:41.106Z,45.63
2023-05-03T10:47:14.589Z,45.15
2023-05-03T10:49:42.878Z,44.97
2023-05-03T10:52:49.868Z,44.81
2023-05-03T10:55:20.793Z,45.86
2023-05-03T10:57:51.167Z,45.90
2023-05-03T11:00:28.724Z,46.01
2023-05-03T11:03:14.301Z,44.97
2023-05-03T11:05:42.862Z,44.71
2023-05-03T11:08:17.612Z,43.93
2023-05-03T11:10:46.625Z,44.44
2023-05-03T11:13:16.731Z,44.14
2023-05-03T11:15:46.887Z,44.53
2023-05-03T11:18:16.384Z,44.31
2023-05-03T11:20:45.586Z,44.59
2023-05-03T11:23:13.804Z,44.26
2023-05-03T11:25:41.853Z,44.18
2023-05-03T11:28:09.933Z,43.40
2023-05-03T11:30:39.382Z,43.89
2023-05-03T11:33:07.948Z,44.09
2023-05-03T11:35:36.694Z,43.57
2023-05-03T11:38:04.747Z,43.71
2023-05-03T11:40:32.945Z,44.47
2023-05-03T11:43:01.708Z,44.94
2023-05-03T11:45:33.941Z,45.14
2023-05-03T11:48:03.591Z,44.90
2023-05-03T11:50:47.511Z,44.62
2023-05-03T11:53:16.922Z,44.83
2023-05-03T11:55:47.908Z,45.37
2023-05-03T11:58:17.550Z,45.12
2023-05-03T12:00:47.704Z,43.96
2023-05-03T12:03:24.033Z,44.27
2023-05-03T12:05:54.623Z,43.17
2023-05-03T12:08:30.275Z,44.37
2023-05-03T12:11:01.691Z,44.57
2023-05-03T12:13:35.946Z,44.28
2023-05-03T12:16:13.809Z,44.57
2023-05-03T12:18:56.260Z,44.71
2023-05-03T12:23:57.874Z,43.99
2023-05-03T12:26:27.254Z,44.24
2023-05-03T12:28:56.893Z,43.14
2023-05-03T12:31:28.915Z,42.74
2023-05-03T12:36:32.331Z,42.76
2023-05-03T12:39:02.029Z,42.51
2023-05-03T12:42:00.934Z,41.15
2023-05-03T12:44:22.431Z,41.92
2023-05-03T12:46:53.250Z,41.71
2023-05-03T12:49:23.666Z,40.33
2023-05-03T12:52:11.121Z,40.48
2023-05-03T12:54:42.268Z,40.78
2023-05-03T12:57:15.361Z,41.07
2023-05-03T12:59:52.269Z,41.20
2023-05-03T13:04:59.575Z,41.68
2023-05-03T13:07:32.288Z,41.94
2023-05-03T13:12:36.273Z,42.02
2023-05-03T13:15:05.539Z,42.23
2023-05-03T13:17:34.173Z,42.87
2023-05-03T13:20:07.017Z,42.23
2023-05-03T13:22:35.184Z,42.43
2023-05-03T13:25:04.385Z,41.81
2023-05-03T13:27:32.820Z,42.21
2023-05-03T13:30:04.571Z,42.30
2023-05-03T13:32:33.180Z,41.84
2023-05-03T13:35:02.746Z,41.87
2023-05-03T13:37:30.987Z,40.97
2023-05-03T13:39:59.262Z,41.22
2023-05-03T13:42:27.285Z,41.39
2023-05-03T13:44:55.314Z,42.10
2023-05-03T13:47:23.385Z,42.39
2023-05-03T13:49:51.429Z,42.32
2023-05-03T13:52:20.795Z,42.22
2023-05-03T13:54:48.849Z,41.96
2023-05-03T13:57:16.948Z,42.34
2023-05-03T13:59:45.434Z,42.51
2023-05-03T14:02:13.447Z,42.44
2023-05-03T14:04:41.487Z,42.01
2023-05-03T14:07:09.567Z,42.20
2023-05-03T14:09:39.566Z,42.49
2023-05-03T14:12:09.075Z,41.56
2023-05-03T14:14:37.320Z,41.84
2023-05-03T14:17:06.196Z,41.94
2023-05-03T14:19:36.680Z,41.86
2023-05-03T14:22:04.831Z,42.07
2023-05-03T14:24:32.884Z,42.18
2023-05-03T14:27:02.970Z,42.25
2023-05-03T14:29:31.330Z,41.90
2023-05-03T14:31:59.367Z,41.69
2023-05-03T14:34:28.955Z,41.58
2023-05-03T14:36:57.029Z,40.81
2023-05-03T14:39:25.497Z,40.87
2023-05-03T14:41:55.145Z,40.74
2023-05-03T14:44:25.822Z,40.51
2023-05-03T14:46:54.007Z,41.09
2023-05-03T14:49:22.259Z,41.57
2023-05-03T14:51:50.287Z,42.29
2023-05-03T14:54:19.592Z,41.69
2023-05-03T14:56:47.889Z,41.96
2023-05-03T14:59:15.991Z,42.07
2023-05-03T15:01:45.438Z,42.31
2023-05-03T15:04:13.586Z,42.56
2023-05-03T15:06:42.808Z,42.85
2023-05-03T15:09:12.798Z,42.14
2023-05-03T15:11:41.315Z,42.60
2023-05-03T15:14:10.050Z,41.21
2023-05-03T15:16:38.240Z,41.31
2023-05-03T15:19:08.375Z,42.44
2023-05-03T15:21:47.359Z,42.01
2023-05-03T15:24:16.127Z,41.25
2023-05-03T15:26:44.230Z,42.02
2023-05-03T15:29:12.437Z,42.35
2023-05-03T15:31:40.610Z,42.98
2023-05-03T15:34:11.161Z,42.97
2023-05-03T15:36:40.338Z,42.58
2023-05-03T15:39:09.170Z,42.75
2023-05-03T15:41:37.376Z,42.84
2023-05-03T15:44:07.876Z,43.35
2023-05-03T15:46:36.294Z,43.47
2023-05-03T15:49:05.222Z,43.25
2023-05-03T15:51:34.791Z,43.38
2023-05-03T15:54:02.803Z,44.12
2023-05-03T15:56:31.162Z,43.52
2023-05-03T15:58:59.626Z,44.07
2023-05-03T16:01:27.811Z,43.86
2023-05-03T16:03:56.080Z,42.78
2023-05-03T16:06:24.237Z,43.62
2023-05-03T16:08:53.984Z,44.09
2023-05-03T16:11:22.441Z,43.88
2023-05-03T16:13:51.353Z,43.60
2023-05-03T16:16:19.425Z,44.43
2023-05-03T16:18:47.561Z,44.52
2023-05-03T16:21:16.837Z,44.76
2023-05-03T16:23:46.013Z,44.36
2023-05-03T16:26:15.525Z,44.45
2023-05-03T16:28:43.897Z,44.63
2023-05-03T16:31:12.056Z,45.12
2023-05-03T16:33:40.088Z,45.59
2023-05-03T16:36:08.741Z,45.11
2023-05-03T16:38:36.936Z,45.38
2023-05-03T16:41:05.048Z,45.44
2023-05-03T16:43:34.627Z,44.45
2023-05-03T16:46:03.185Z,44.90
2023-05-03T16:48:32.506Z,44.94
2023-05-03T16:51:00.996Z,45.40
2023-05-03T16:53:29.150Z,46.05
2023-05-03T16:55:57.288Z,46.62
2023-05-03T16:58:25.362Z,45.88
2023-05-03T17:00:54.814Z,46.23
2023-05-03T17:03:23.096Z,47.03
2023-05-03T17:05:51.230Z,45.99
2023-05-03T17:08:19.289Z,45.64
2023-05-03T17:10:47.285Z,45.76
2023-05-03T17:13:16.487Z,46.71
2023-05-03T17:15:44.782Z,46.98
2023-05-03T17:18:14.211Z,47.37
2023-05-03T17:20:42.882Z,47.47
2023-05-03T17:23:10.963Z,47.38
2023-05-03T17:25:39.115Z,47.29
2023-05-03T17:28:07.214Z,46.93
2023-05-03T17:30:35.696Z,47.63
2023-05-03T17:33:03.833Z,47.31
2023-05-03T17:35:33.427Z,47.36
2023-05-03T17:38:01.562Z,46.87
2023-05-03T17:40:29.667Z,47.50
2023-05-03T17:42:57.804Z,47.33
2023-05-03T17:45:27.744Z,47.98
2023-05-03T17:47:56.360Z,48.29
2023-05-03T17:50:24.486Z,48.33
2023-05-03T17:52:55.392Z,48.31
2023-05-03T17:55:23.539Z,48.74
2023-05-03T17:57:51.680Z,48.81
2023-05-03T18:00:22.420Z,49.19
2023-05-03T18:02:50.556Z,49.56
2023-05-03T18:05:18.872Z,50.26
2023-05-03T18:07:47.029Z,50.28
2023-05-03T18:10:17.518Z,49.98
2023-05-03T18:12:45.759Z,50.12
2023-05-03T18:15:15.348Z,50.55
2023-05-03T18:17:43.873Z,51.18
2023-05-03T18:20:13.613Z,51.19
2023-05-03T18:22:42.188Z,51.34
2023-05-03T18:25:10.965Z,51.67
2023-05-03T18:27:40.470Z,51.50
2023-05-03T18:30:10.485Z,51.72
2023-05-03T18:32:38.694Z,52.34
2023-05-03T18:35:07.801Z,52.40
2023-05-03T18:37:35.904Z,52.93
2023-05-03T18:40:04.732Z,53.46
2023-05-03T18:42:33.268Z,53.39
2023-05-03T18:45:02.740Z,54.02
2023-05-03T18:47:31.005Z,54.14
2023-05-03T18:49:59.086Z,54.40
2023-05-03T18:52:27.206Z,54.73
2023-05-03T18:54:55.304Z,54.96
2023-05-03T18:57:23.383Z,54.64
2023-05-03T19:00:00.251Z,54.54
2023-05-03T19:02:31.485Z,54.88
2023-05-03T19:05:00.792Z,54.72
2023-05-03T19:07:29.278Z,54.43
2023-05-03T19:09:58.270Z,54.09
2023-05-03T19:12:26.805Z,54.26
2023-05-03T19:14:55.030Z,54.36
2023-05-03T19:17:23.471Z,54.74
2023-05-03T19:19:52.918Z,54.61
2023-05-03T19:22:21.329Z,54.74
2023-05-03T19:24:50.207Z,54.77
2023-05-03T19:27:18.507Z,55.19
2023-05-03T19:29:46.620Z,55.77
2023-05-03T19:32:14.713Z,56.68
2023-05-03T19:34:42.893Z,57.30
2023-05-03T19:37:12.483Z,57.96
2023-05-03T19:39:40.651Z,57.94
2023-05-03T19:42:08.904Z,58.38
2023-05-03T19:44:37.442Z,58.67
2023-05-03T19:47:05.740Z,58.98
2023-05-03T19:49:34.099Z,59.10
2023-05-03T19:52:04.414Z,59.43
2023-05-03T19:54:34.122Z,59.51
2023-05-03T19:57:05.963Z,59.67
2023-05-03T19:59:34.550Z,59.50
2023-05-03T20:02:03.016Z,59.08
2023-05-03T20:04:31.413Z,59.48
2023-05-03T20:06:59.614Z,59.67
2023-05-03T20:09:27.697Z,59.71
2023-05-03T20:11:59.861Z,59.72
2023-05-03T20:14:28.185Z,60.23
2023-05-03T20:16:59.211Z,60.69
2023-05-03T20:19:27.436Z,60.75
2023-05-03T20:21:55.492Z,60.64
2023-05-03T20:24:23.695Z,60.98
2023-05-03T20:26:52.687Z,60.44
2023-05-03T20:29:22.170Z,60.34
2023-05-03T20:31:53.497Z,60.74
2023-05-03T20:34:21.820Z,60.91
2023-05-03T20:36:49.956Z,61.69
2023-05-03T20:39:18.082Z,61.70
2023-05-03T20:41:46.314Z,61.56
2023-05-03T20:44:14.732Z,61.97
2023-05-03T20:46:45.374Z,62.20
2023-05-03T20:49:13.544Z,62.56
2023-05-03T20:51:41.716Z,62.11
2023-05-03T20:54:09.826Z,62.11
2023-05-03T20:56:37.981Z,61.84
2023-05-03T20:59:06.853Z,62.13
2023-05-03T21:01:35.088Z,62.67
2023-05-03T21:04:04.716Z,62.32
2023-05-03T21:06:32.831Z,62.49
2023-05-03T21:09:00.940Z,62.89
2023-05-03T21:11:29.042Z,63.07
2023-05-03T21:13:58.149Z,63.31
2023-05-03T21:16:27.838Z,63.08
2023-05-03T21:18:56.031Z,62.88
2023-05-03T21:21:25.568Z,62.80
2023-05-03T21:23:53.695Z,62.91
2023-05-03T21:26:22.074Z,63.00
2023-05-03T21:28:50.785Z,63.08
2023-05-03T21:31:18.952Z,62.84
2023-05-03T21:33:47.082Z,61.77
2023-05-03T21:36:16.375Z,62.10
2023-05-03T21:38:46.033Z,62.56
2023-05-03T21:41:14.463Z,62.92
2023-05-03T21:43:42.691Z,62.96
2023-05-03T21:46:11.080Z,63.57
2023-05-03T21:48:40.244Z,64.12
2023-05-03T21:51:08.559Z,64.60
2023-05-03T21:53:36.827Z,64.69
2023-05-03T21:56:07.035Z,65.28
2023-05-03T21:58:35.113Z,65.10
2023-05-03T22:01:03.572Z,65.23
2023-05-03T22:03:31.800Z,65.21
2023-05-03T22:06:00.127Z,65.59
2023-05-03T22:08:28.215Z,65.77
2023-05-03T22:10:56.984Z,66.07
2023-05-03T22:13:26.598Z,66.18
2023-05-03T22:15:54.724Z,66.66
2023-05-03T22:18:23.936Z,66.99
2023-05-03T22:20:52.272Z,67.12
2023-05-03T22:23:20.375Z,67.26
2023-05-03T22:25:48.665Z,67.80
2023-05-03T22:28:16.760Z,67.51
2023-05-03T22:30:46.709Z,67.49
2023-05-03T22:33:15.210Z,68.15
2023-05-03T22:35:43.386Z,68.11
2023-05-03T22:38:11.590Z,68.18
2023-05-03T22:40:39.722Z,68.22
2023-05-03T22:43:07.820Z,68.22
2023-05-03T22:45:35.972Z,67.85
2023-05-03T22:48:06.099Z,68.04
2023-05-03T22:50:34.356Z,67.69
2023-05-03T22:53:02.455Z,66.76
2023-05-03T22:55:30.552Z,67.12
2023-05-03T22:57:58.653Z,67.52
2023-05-03T23:00:27.064Z,66.88
2023-05-03T23:02:55.605Z,65.91
2023-05-03T23:05:25.726Z,65.35
2023-05-03T23:07:53.827Z,64.62
2023-05-03T23:10:22.029Z,64.60
2023-05-03T23:12:50.386Z,64.23
2023-05-03T23:15:18.700Z,64.29
2023-05-03T23:17:46.839Z,64.62
2023-05-03T23:20:15.565Z,64.53
2023-05-03T23:22:45.023Z,65.18
2023-05-03T23:25:13.146Z,65.01
2023-05-03T23:27:41.354Z,65.78
2023-05-03T23:30:11.081Z,66.04
2023-05-03T23:32:39.958Z,66.60
2023-05-03T23:35:10.303Z,67.00
2023-05-03T23:37:38.408Z,66.74
2023-05-03T23:40:09.631Z,67.36
2023-05-03T23:42:39.581Z,67.52
2023-05-03T23:45:09.806Z,68.52
2023-05-03T23:47:38.019Z,69.36
2023-05-03T23:50:07.650Z,68.43
2023-05-03T23:52:36.920Z,69.09
2023-05-03T23:55:07.361Z,70.17
2023-05-03T23:57:35.904Z,70.51
